Time;durP1;ratioP1;P1;durP2;ratioP2;P2;SDS_P1;SDS_P2;PMS_P1;PMS_P2;Temp;Humidity;BMP_temperature;BMP_pressure;BME280_temperature;BME280_humidity;BME280_pressure;Samples;Min_cycle;Max_cycle;Signal;HPM_P1;HPM_P2
2021/03/19 00:00:43;;;;;;;16.98;10.25;;;2.60;99.90;;;;;;493283;241;27402;-73
2021/03/19 00:02:43;;;;;;;19.58;11.70;;;2.60;99.90;;;;;;492224;241;27387;-73
2021/03/19 00:04:44;;;;;;;18.15;11.43;;;2.70;99.90;;;;;;492583;240;27488;-73
2021/03/19 00:06:45;;;;;;;20.17;11.12;;;2.70;99.90;;;;;;494833;240;28358;-73
2021/03/19 00:08:47;;;;;;;19.42;11.20;;;2.70;99.90;;;;;;494825;240;27924;-73
2021/03/19 00:10:48;;;;;;;20.80;12.35;;;2.70;99.90;;;;;;493311;241;27404;-74
2021/03/19 00:12:49;;;;;;;17.83;12.30;;;2.70;99.90;;;;;;493232;241;27389;-73
2021/03/19 00:14:52;;;;;;;21.17;12.37;;;2.70;99.90;;;;;;493312;238;27405;-74
2021/03/19 00:16:52;;;;;;;19.25;12.25;;;2.70;99.90;;;;;;493267;241;27382;-73
2021/03/19 00:18:53;;;;;;;21.67;13.70;;;2.70;99.90;;;;;;493294;241;27484;-73
2021/03/19 00:20:54;;;;;;;21.75;12.43;;;2.80;99.90;;;;;;493298;241;27859;-73
2021/03/19 00:22:55;;;;;;;21.70;12.80;;;2.80;99.90;;;;;;493261;241;27848;-73
2021/03/19 00:24:57;;;;;;;23.40;12.90;;;2.80;99.90;;;;;;493296;241;27505;-72
2021/03/19 00:26:58;;;;;;;19.73;12.55;;;2.80;99.90;;;;;;493290;241;27448;-72
2021/03/19 00:28:59;;;;;;;24.35;13.45;;;2.80;99.90;;;;;;493307;241;27381;-73
2021/03/19 00:31:00;;;;;;;24.30;14.13;;;2.80;99.90;;;;;;493284;241;27397;-74
2021/03/19 00:33:02;;;;;;;28.35;13.85;;;2.70;99.90;;;;;;492780;241;27393;-73
2021/03/19 00:35:03;;;;;;;20.75;13.85;;;2.70;99.90;;;;;;490817;240;27620;-74
2021/03/19 00:37:04;;;;;;;22.42;14.90;;;2.80;99.90;;;;;;490482;242;27948;-73
2021/03/19 00:39:05;;;;;;;27.42;14.30;;;2.80;99.90;;;;;;490489;242;27938;-72
2021/03/19 00:41:07;;;;;;;23.20;13.62;;;2.70;99.90;;;;;;490487;242;27586;-74
2021/03/19 00:43:08;;;;;;;26.40;14.43;;;2.70;99.90;;;;;;490489;242;27496;-72
2021/03/19 00:45:09;;;;;;;21.05;13.70;;;2.70;99.90;;;;;;490478;242;27602;-74
2021/03/19 00:47:10;;;;;;;21.35;13.90;;;2.80;99.90;;;;;;490495;242;27603;-73
2021/03/19 00:49:12;;;;;;;25.73;15.00;;;2.80;99.90;;;;;;490501;242;27509;-73
2021/03/19 00:51:13;;;;;;;25.42;15.13;;;2.80;99.90;;;;;;490488;242;27499;-73
2021/03/19 00:53:14;;;;;;;25.55;14.73;;;2.80;99.90;;;;;;490477;242;27944;-73
2021/03/19 00:55:15;;;;;;;27.02;13.98;;;2.80;99.90;;;;;;490484;242;29238;-75
2021/03/19 00:57:17;;;;;;;23.65;14.63;;;2.80;99.90;;;;;;490482;242;27497;-73
2021/03/19 00:59:18;;;;;;;21.75;14.15;;;2.70;99.90;;;;;;490483;242;27584;-73
2021/03/19 01:01:19;;;;;;;25.95;13.90;;;2.70;99.90;;;;;;490472;242;27483;-74
2021/03/19 01:03:21;;;;;;;25.35;14.35;;;2.70;99.90;;;;;;491597;240;27494;-72
2021/03/19 01:05:22;;;;;;;24.40;14.20;;;2.70;99.90;;;;;;504453;233;27466;-74
2021/03/19 01:07:23;;;;;;;28.58;14.95;;;2.70;99.90;;;;;;498723;237;28266;-72
2021/03/19 01:09:24;;;;;;;24.80;14.18;;;2.70;99.90;;;;;;498717;237;27936;-73
2021/03/19 01:11:26;;;;;;;23.45;13.57;;;2.70;99.90;;;;;;498749;237;27366;-73
2021/03/19 01:13:27;;;;;;;23.77;14.05;;;2.60;99.90;;;;;;498725;237;27428;-73
2021/03/19 01:15:28;;;;;;;25.83;14.52;;;2.60;99.90;;;;;;498728;238;27440;-73
2021/03/19 01:17:29;;;;;;;24.58;14.75;;;2.60;99.90;;;;;;498739;237;27365;-73
2021/03/19 01:19:31;;;;;;;21.30;13.20;;;2.60;99.90;;;;;;498715;237;27397;-73
2021/03/19 01:21:32;;;;;;;25.60;13.95;;;2.50;99.90;;;;;;498727;237;27381;-73
2021/03/19 01:23:33;;;;;;;23.48;13.27;;;2.50;99.90;;;;;;498728;237;27837;-73
2021/03/19 01:25:34;;;;;;;21.10;12.75;;;2.50;99.90;;;;;;498667;238;27908;-73
2021/03/19 01:27:36;;;;;;;25.73;13.30;;;2.60;99.90;;;;;;498733;238;27358;-73
2021/03/19 01:29:37;;;;;;;23.00;13.48;;;2.60;99.90;;;;;;498726;237;27388;-73
2021/03/19 01:31:38;;;;;;;23.92;13.65;;;2.60;99.90;;;;;;498716;238;27459;-73
2021/03/19 01:33:39;;;;;;;21.20;14.00;;;2.50;99.90;;;;;;500409;234;27353;-73
2021/03/19 01:35:41;;;;;;;24.12;14.35;;;2.50;99.90;;;;;;502957;233;27459;-72
2021/03/19 01:37:42;;;;;;;22.42;14.07;;;2.60;99.90;;;;;;507823;233;27428;-72
2021/03/19 01:39:43;;;;;;;25.08;15.02;;;2.60;99.90;;;;;;507799;233;27928;-73
2021/03/19 01:41:45;;;;;;;24.87;14.93;;;2.60;99.90;;;;;;507819;233;27921;-73
2021/03/19 01:43:46;;;;;;;24.58;14.30;;;2.60;99.90;;;;;;507838;233;27448;-73
2021/03/19 01:45:47;;;;;;;27.02;14.57;;;2.60;99.90;;;;;;507840;233;27352;-73
2021/03/19 01:47:48;;;;;;;22.83;13.90;;;2.60;99.90;;;;;;507838;233;27345;-72
2021/03/19 01:49:50;;;;;;;23.45;14.07;;;2.60;99.90;;;;;;507901;233;27409;-73
2021/03/19 01:51:51;;;;;;;27.17;14.70;;;2.60;99.90;;;;;;507879;233;27361;-72
2021/03/19 01:53:52;;;;;;;25.60;14.52;;;2.60;99.90;;;;;;507876;233;27887;-74
2021/03/19 01:55:53;;;;;;;26.33;15.15;;;2.60;99.90;;;;;;507856;233;27787;-73
2021/03/19 01:57:54;;;;;;;24.85;13.62;;;2.60;99.90;;;;;;507856;233;27434;-72
2021/03/19 01:59:56;;;;;;;23.77;13.93;;;2.60;99.90;;;;;;507817;233;27350;-72
2021/03/19 02:01:57;;;;;;;25.48;15.25;;;2.60;99.90;;;;;;507814;233;27337;-72
2021/03/19 02:03:58;;;;;;;26.95;15.27;;;2.60;99.90;;;;;;505786;233;27424;-73
2021/03/19 02:05:59;;;;;;;29.25;16.65;;;2.60;99.90;;;;;;501999;234;27467;-73
2021/03/19 02:08:01;;;;;;;24.37;14.70;;;2.60;99.90;;;;;;489618;242;27526;-72
2021/03/19 02:10:02;;;;;;;25.37;14.95;;;2.60;99.90;;;;;;488620;243;28235;-73
2021/03/19 02:12:03;;;;;;;28.23;15.43;;;2.60;99.90;;;;;;488612;242;27938;-73
2021/03/19 02:14:05;;;;;;;26.73;15.27;;;2.60;99.90;;;;;;488642;242;27400;-74
2021/03/19 02:16:06;;;;;;;23.90;15.45;;;2.60;99.90;;;;;;488616;242;27380;-73
2021/03/19 02:18:07;;;;;;;27.35;14.40;;;2.60;99.90;;;;;;488619;243;27396;-73
2021/03/19 02:20:08;;;;;;;27.35;16.45;;;2.60;99.90;;;;;;488618;242;27487;-73
2021/03/19 02:22:10;;;;;;;24.73;14.63;;;2.60;99.90;;;;;;488619;243;27388;-73
2021/03/19 02:24:11;;;;;;;28.30;14.87;;;2.60;99.90;;;;;;488611;242;27444;-74
2021/03/19 02:26:12;;;;;;;28.60;15.30;;;2.60;99.90;;;;;;488528;243;27880;-74
2021/03/19 02:28:13;;;;;;;25.48;15.35;;;2.70;99.90;;;;;;488554;242;27878;-73
2021/03/19 02:30:15;;;;;;;23.30;14.65;;;2.60;99.90;;;;;;488552;243;27401;-73
2021/03/19 02:32:16;;;;;;;26.23;15.35;;;2.60;99.90;;;;;;488539;242;27388;-72
2021/03/19 02:34:17;;;;;;;27.58;14.85;;;2.60;99.90;;;;;;487983;242;27376;-72
2021/03/19 02:36:18;;;;;;;21.60;14.45;;;2.50;99.90;;;;;;487267;243;27388;-73
2021/03/19 02:38:20;;;;;;;24.05;14.02;;;2.50;99.90;;;;;;488597;242;27484;-74
2021/03/19 02:40:21;;;;;;;26.10;15.38;;;2.50;99.90;;;;;;488606;242;27860;-73
2021/03/19 02:42:22;;;;;;;25.15;14.63;;;2.50;99.90;;;;;;489588;242;28033;-73
2021/03/19 02:44:23;;;;;;;25.15;15.85;;;2.60;99.90;;;;;;487518;242;29074;-72
2021/03/19 02:46:25;;;;;;;24.42;14.65;;;2.60;99.90;;;;;;487628;243;27488;-73
2021/03/19 02:48:26;;;;;;;26.85;16.62;;;2.60;99.90;;;;;;487632;242;27615;-74
2021/03/19 02:50:27;;;;;;;25.92;15.65;;;2.60;99.90;;;;;;487656;243;27507;-72
2021/03/19 02:52:28;;;;;;;27.60;14.87;;;2.60;99.90;;;;;;487645;242;27664;-73
2021/03/19 02:54:30;;;;;;;27.92;15.77;;;2.60;99.90;;;;;;487679;243;27500;-73
2021/03/19 02:56:31;;;;;;;23.73;14.93;;;2.60;99.90;;;;;;487628;242;27995;-73
2021/03/19 02:58:32;;;;;;;24.70;15.15;;;2.60;99.90;;;;;;487627;243;29430;-73
2021/03/19 03:00:33;;;;;;;25.05;14.95;;;2.60;99.90;;;;;;487649;242;27491;-72
2021/03/19 03:02:35;;;;;;;23.00;15.07;;;2.60;99.90;;;;;;487645;242;27501;-73
2021/03/19 03:04:36;;;;;;;22.77;15.45;;;2.60;99.90;;;;;;486219;242;27485;-73
2021/03/19 03:06:37;;;;;;;27.37;14.70;;;2.50;99.90;;;;;;487451;243;27481;-73
2021/03/19 03:08:38;;;;;;;24.10;15.05;;;2.50;99.90;;;;;;488625;242;27408;-74
2021/03/19 03:10:40;;;;;;;25.40;14.85;;;2.50;99.90;;;;;;488632;243;27469;-73
2021/03/19 03:12:41;;;;;;;23.48;15.10;;;2.50;99.90;;;;;;488634;242;27871;-73
2021/03/19 03:14:42;;;;;;;23.73;15.13;;;2.50;99.90;;;;;;488641;243;28327;-72
2021/03/19 03:16:43;;;;;;;22.80;14.25;;;2.50;99.90;;;;;;488643;242;27369;-73
2021/03/19 03:18:45;;;;;;;22.67;14.40;;;2.60;99.90;;;;;;488638;242;27464;-74
2021/03/19 03:20:47;;;;;;;23.50;14.65;;;2.60;99.90;;;;;;488637;242;27426;-73
2021/03/19 03:22:47;;;;;;;22.73;15.43;;;2.60;99.90;;;;;;488623;242;27475;-73
2021/03/19 03:24:48;;;;;;;25.50;14.82;;;2.60;99.90;;;;;;488613;242;27396;-72
2021/03/19 03:26:50;;;;;;;26.85;15.15;;;2.70;99.90;;;;;;488622;243;27483;-72
2021/03/19 03:28:51;;;;;;;24.40;15.48;;;2.70;99.90;;;;;;489601;242;28052;-74
2021/03/19 03:30:52;;;;;;;25.00;15.48;;;2.70;99.90;;;;;;487661;243;27933;-72
2021/03/19 03:32:54;;;;;;;25.20;14.48;;;2.60;99.90;;;;;;487646;242;27617;-73
2021/03/19 03:34:55;;;;;;;23.50;15.30;;;2.60;99.90;;;;;;485902;243;27491;-74
2021/03/19 03:36:56;;;;;;;21.62;13.75;;;2.60;99.90;;;;;;487131;243;27599;-73
2021/03/19 03:38:57;;;;;;;22.77;14.15;;;2.60;99.90;;;;;;489149;243;27500;-73
2021/03/19 03:40:59;;;;;;;22.13;13.90;;;2.60;99.90;;;;;;489144;243;27472;-72
2021/03/19 03:43:00;;;;;;;23.40;14.65;;;2.50;99.90;;;;;;489155;243;27903;-73
2021/03/19 03:45:01;;;;;;;25.70;14.87;;;2.50;99.90;;;;;;489164;243;28925;-72
2021/03/19 03:47:03;;;;;;;21.70;14.13;;;2.50;99.90;;;;;;489158;243;27444;-72
2021/03/19 03:49:04;;;;;;;23.80;13.62;;;2.50;99.90;;;;;;489156;243;27393;-73
2021/03/19 03:51:06;;;;;;;23.50;15.10;;;2.50;99.90;;;;;;489155;243;27496;-74
2021/03/19 03:53:06;;;;;;;18.75;12.25;;;2.50;99.90;;;;;;489136;243;27409;-73
2021/03/19 03:55:07;;;;;;;24.70;14.75;;;2.40;99.90;;;;;;489144;243;27401;-73
2021/03/19 03:57:09;;;;;;;21.00;13.57;;;2.30;99.90;;;;;;489157;243;27525;-72
2021/03/19 03:59:10;;;;;;;21.48;13.27;;;2.30;99.90;;;;;;489170;243;27930;-72
2021/03/19 04:01:11;;;;;;;21.50;12.65;;;2.20;99.90;;;;;;489142;243;28022;-74
2021/03/19 04:03:12;;;;;;;20.40;12.88;;;2.30;99.90;;;;;;487198;243;27388;-72
2021/03/19 04:05:14;;;;;;;22.62;13.85;;;2.20;99.90;;;;;;488984;243;27408;-72
2021/03/19 04:07:15;;;;;;;21.20;12.65;;;2.20;99.90;;;;;;489154;243;27487;-73
2021/03/19 04:09:16;;;;;;;21.48;14.40;;;2.20;99.90;;;;;;489173;243;27401;-73
2021/03/19 04:11:17;;;;;;;19.35;12.75;;;2.20;99.90;;;;;;489163;243;27405;-72
2021/03/19 04:13:19;;;;;;;20.92;13.52;;;2.30;99.90;;;;;;489149;243;27400;-73
2021/03/19 04:15:20;;;;;;;22.27;13.88;;;2.20;99.90;;;;;;489152;243;27920;-72
2021/03/19 04:17:21;;;;;;;22.92;13.73;;;2.20;99.90;;;;;;489165;243;27979;-73
2021/03/19 04:19:22;;;;;;;19.58;12.90;;;2.20;99.90;;;;;;489154;243;27376;-73
2021/03/19 04:21:24;;;;;;;20.08;12.80;;;2.20;99.90;;;;;;489156;243;27499;-72
2021/03/19 04:23:25;;;;;;;23.12;14.15;;;2.20;99.90;;;;;;489167;243;27389;-72
2021/03/19 04:25:26;;;;;;;22.85;13.77;;;2.20;99.90;;;;;;489203;243;27416;-72
2021/03/19 04:27:27;;;;;;;22.15;13.62;;;2.20;99.90;;;;;;489173;243;27538;-74
2021/03/19 04:29:29;;;;;;;21.27;14.38;;;2.20;99.90;;;;;;489156;243;27860;-73
2021/03/19 04:31:30;;;;;;;23.00;14.30;;;2.20;99.90;;;;;;489168;243;27875;-73
2021/03/19 04:33:31;;;;;;;22.40;14.68;;;2.20;99.90;;;;;;489157;243;27412;-72
2021/03/19 04:35:33;;;;;;;18.15;11.82;;;2.30;99.90;;;;;;487598;243;27489;-73
2021/03/19 04:37:34;;;;;;;21.37;13.48;;;2.30;99.90;;;;;;483073;242;27474;-74
2021/03/19 04:39:35;;;;;;;24.73;14.48;;;2.30;99.90;;;;;;486094;245;27482;-72
2021/03/19 04:41:36;;;;;;;20.37;13.13;;;2.20;99.90;;;;;;486077;245;27402;-73
2021/03/19 04:43:37;;;;;;;25.33;16.23;;;2.20;99.90;;;;;;486091;245;27382;-74
2021/03/19 04:45:39;;;;;;;23.55;14.20;;;2.30;99.90;;;;;;486080;245;27853;-73
2021/03/19 04:47:40;;;;;;;24.73;13.77;;;2.30;99.90;;;;;;486102;245;27849;-74
2021/03/19 04:49:41;;;;;;;22.92;14.60;;;2.20;99.90;;;;;;486089;245;27402;-72
2021/03/19 04:51:43;;;;;;;22.42;14.60;;;2.20;99.90;;;;;;486083;245;27555;-73
2021/03/19 04:53:44;;;;;;;26.17;15.57;;;2.20;99.90;;;;;;486080;245;27468;-74
2021/03/19 04:55:45;;;;;;;25.88;15.65;;;2.20;99.90;;;;;;486088;245;27478;-72
2021/03/19 04:57:46;;;;;;;27.35;15.20;;;2.20;99.90;;;;;;486088;245;27399;-73
2021/03/19 04:59:48;;;;;;;22.70;14.23;;;2.10;99.90;;;;;;486090;245;27482;-74
2021/03/19 05:01:49;;;;;;;24.27;14.63;;;1.90;99.90;;;;;;486068;245;27948;-73
2021/03/19 05:03:50;;;;;;;24.95;14.80;;;2.00;99.90;;;;;;486338;243;28043;-72
2021/03/19 05:05:51;;;;;;;28.80;16.62;;;1.90;99.90;;;;;;486082;243;27595;-73
2021/03/19 05:07:54;;;;;;;27.52;14.85;;;1.90;99.90;;;;;;482572;245;27401;-73
2021/03/19 05:09:54;;;;;;;26.10;15.65;;;1.90;99.90;;;;;;488683;242;27507;-74
2021/03/19 05:11:55;;;;;;;17.87;11.07;;;1.90;99.90;;;;;;490486;242;27504;-73
2021/03/19 05:13:56;;;;;;;21.15;11.55;;;1.90;99.90;;;;;;490492;242;27495;-73
2021/03/19 05:15:58;;;;;;;16.73;10.90;;;1.90;99.90;;;;;;490483;242;28363;-72
2021/03/19 05:17:59;;;;;;;18.35;11.07;;;1.80;99.90;;;;;;490489;242;28031;-72
2021/03/19 05:20:00;;;;;;;13.70;9.73;;;1.80;99.90;;;;;;490494;242;27520;-73
2021/03/19 05:22:01;;;;;;;13.65;8.88;;;1.80;99.90;;;;;;490469;242;27600;-73
2021/03/19 05:24:03;;;;;;;13.80;9.13;;;1.70;99.90;;;;;;490471;242;27602;-73
2021/03/19 05:26:04;;;;;;;13.95;9.65;;;1.70;99.90;;;;;;490484;242;27599;-74
2021/03/19 05:28:05;;;;;;;15.98;9.38;;;1.70;99.90;;;;;;490496;242;27492;-72
2021/03/19 05:30:06;;;;;;;15.20;10.30;;;1.70;99.90;;;;;;490493;242;27603;-73
2021/03/19 05:32:08;;;;;;;15.43;9.82;;;1.80;99.90;;;;;;490480;242;27512;-76
2021/03/19 05:34:09;;;;;;;14.68;9.45;;;1.80;99.90;;;;;;490489;242;28031;-72
2021/03/19 05:36:10;;;;;;;16.98;9.90;;;1.80;99.90;;;;;;490489;242;28022;-73
2021/03/19 05:38:11;;;;;;;14.07;9.30;;;1.70;99.90;;;;;;490500;242;27993;-72
2021/03/19 05:40:13;;;;;;;18.15;10.30;;;1.60;99.90;;;;;;490505;242;27512;-72
2021/03/19 05:42:14;;;;;;;17.73;10.55;;;1.60;99.90;;;;;;490495;242;27519;-72
2021/03/19 05:44:15;;;;;;;16.40;10.27;;;1.50;99.90;;;;;;490493;242;27584;-72
2021/03/19 05:46:16;;;;;;;17.60;11.05;;;1.50;99.90;;;;;;490490;242;27496;-73
2021/03/19 05:48:18;;;;;;;19.65;11.52;;;1.50;99.90;;;;;;490493;242;27495;-72
2021/03/19 05:50:19;;;;;;;16.37;10.38;;;1.50;99.90;;;;;;490484;242;27505;-72
2021/03/19 05:52:20;;;;;;;17.95;10.98;;;1.50;99.90;;;;;;490475;242;28460;-73
2021/03/19 05:54:21;;;;;;;17.62;10.88;;;1.50;99.90;;;;;;490479;242;28105;-73
2021/03/19 05:56:23;;;;;;;16.50;9.70;;;1.50;99.90;;;;;;490470;242;27484;-73
2021/03/19 05:58:24;;;;;;;16.12;10.13;;;1.50;99.90;;;;;;490514;242;27484;-74
2021/03/19 06:00:25;;;;;;;14.82;9.75;;;1.50;99.90;;;;;;490703;240;27558;-74
2021/03/19 06:02:26;;;;;;;16.60;10.90;;;1.60;99.90;;;;;;493636;241;27585;-75
2021/03/19 06:04:28;;;;;;;16.02;10.55;;;1.60;99.90;;;;;;493513;237;27583;-75
2021/03/19 06:06:29;;;;;;;18.25;11.18;;;1.60;99.90;;;;;;501022;237;27550;-79
2021/03/19 06:08:30;;;;;;;16.40;10.85;;;1.70;99.90;;;;;;501318;237;28032;-74
2021/03/19 06:10:32;;;;;;;23.48;12.50;;;1.80;99.90;;;;;;501261;237;27944;-75
2021/03/19 06:12:33;;;;;;;19.65;12.60;;;1.70;99.90;;;;;;501324;237;27476;-75
2021/03/19 06:14:34;;;;;;;44.85;15.20;;;1.70;99.90;;;;;;501329;237;27616;-75
2021/03/19 06:16:35;;;;;;;30.40;14.30;;;1.60;99.90;;;;;;501278;237;27464;-75
2021/03/19 06:18:37;;;;;;;85.57;15.48;;;1.60;99.90;;;;;;501320;237;27544;-76
2021/03/19 06:20:38;;;;;;;49.55;13.70;;;1.50;99.90;;;;;;501319;237;27940;-74
2021/03/19 06:22:39;;;;;;;52.45;14.15;;;1.40;99.90;;;;;;501163;237;27950;-74
2021/03/19 06:24:40;;;;;;;36.00;13.30;;;1.30;99.90;;;;;;501298;237;27468;-74
2021/03/19 06:26:42;;;;;;;25.80;12.57;;;1.40;99.90;;;;;;501316;237;27561;-74
2021/03/19 06:28:43;;;;;;;22.50;11.43;;;1.40;99.90;;;;;;501313;237;27475;-75
2021/03/19 06:30:44;;;;;;;16.02;10.57;;;1.50;99.90;;;;;;501334;237;27571;-76
2021/03/19 06:32:45;;;;;;;18.10;11.38;;;1.50;99.90;;;;;;501319;237;27460;-74
2021/03/19 06:34:47;;;;;;;15.05;9.77;;;1.50;99.90;;;;;;501326;237;27559;-73
2021/03/19 06:36:48;;;;;;;13.27;9.27;;;1.60;99.90;;;;;;501375;237;27892;-73
2021/03/19 06:38:49;;;;;;;17.37;11.30;;;1.60;99.90;;;;;;501317;237;28012;-75
2021/03/19 06:40:50;;;;;;;18.50;11.80;;;1.50;99.90;;;;;;501287;237;27845;-74
2021/03/19 06:42:52;;;;;;;21.15;12.55;;;1.50;99.90;;;;;;501338;237;27578;-74
2021/03/19 06:44:53;;;;;;;18.30;12.10;;;1.50;99.90;;;;;;501369;237;27553;-77
2021/03/19 06:46:54;;;;;;;26.60;15.55;;;1.40;99.90;;;;;;501308;237;27473;-74
2021/03/19 06:48:55;;;;;;;25.17;14.63;;;1.40;99.90;;;;;;501340;237;27474;-74
2021/03/19 06:50:57;;;;;;;30.62;16.40;;;1.50;99.90;;;;;;501329;237;27475;-74
2021/03/19 06:52:58;;;;;;;31.10;17.50;;;1.50;99.90;;;;;;501314;237;27928;-75
2021/03/19 06:54:59;;;;;;;30.67;17.12;;;1.50;99.90;;;;;;501327;237;28002;-74
2021/03/19 06:57:00;;;;;;;28.77;17.33;;;1.40;99.90;;;;;;501352;237;27493;-74
2021/03/19 06:59:02;;;;;;;32.92;18.20;;;1.40;99.90;;;;;;501292;237;27511;-74
2021/03/19 07:01:03;;;;;;;33.85;19.70;;;1.50;99.90;;;;;;496652;237;27910;-77
2021/03/19 07:03:04;;;;;;;32.50;19.77;;;1.60;99.90;;;;;;493970;240;28051;-74
2021/03/19 07:05:06;;;;;;;27.50;18.23;;;1.60;99.90;;;;;;493656;241;28912;-74
2021/03/19 07:07:08;;;;;;;30.88;17.98;;;1.60;99.90;;;;;;493716;241;27490;-76
2021/03/19 07:09:09;;;;;;;35.45;19.87;;;1.60;99.90;;;;;;493695;241;28145;-77
2021/03/19 07:11:10;;;;;;;37.50;21.60;;;1.50;99.90;;;;;;493641;241;27987;-75
2021/03/19 07:13:11;;;;;;;37.65;21.45;;;1.50;99.90;;;;;;493674;241;27601;-74
2021/03/19 07:15:14;;;;;;;44.88;25.37;;;1.50;99.90;;;;;;493669;240;27484;-74
2021/03/19 07:17:15;;;;;;;42.13;24.23;;;1.50;99.90;;;;;;493708;241;27507;-77
2021/03/19 07:19:16;;;;;;;45.10;24.95;;;1.50;99.90;;;;;;493746;240;28025;-75
2021/03/19 07:21:18;;;;;;;44.10;23.17;;;1.60;99.90;;;;;;493743;241;27966;-75
2021/03/19 07:23:19;;;;;;;42.08;24.60;;;1.50;99.90;;;;;;493697;240;27496;-75
2021/03/19 07:25:20;;;;;;;49.90;26.98;;;1.50;99.90;;;;;;493740;240;27498;-75
2021/03/19 07:27:21;;;;;;;45.55;24.73;;;1.60;99.90;;;;;;493705;241;27508;-75
2021/03/19 07:29:23;;;;;;;45.15;24.95;;;1.50;99.90;;;;;;493716;241;27487;-75
2021/03/19 07:31:24;;;;;;;46.97;26.52;;;1.50;99.90;;;;;;491982;240;27488;-74
2021/03/19 07:33:25;;;;;;;43.05;23.83;;;1.50;99.90;;;;;;493440;240;27502;-74
2021/03/19 07:35:26;;;;;;;44.80;24.65;;;1.50;99.90;;;;;;490512;242;28314;-74
2021/03/19 07:37:28;;;;;;;43.63;24.87;;;1.60;99.90;;;;;;490515;242;29195;-75
2021/03/19 07:39:29;;;;;;;48.25;25.75;;;1.60;99.90;;;;;;490531;242;27484;-74
2021/03/19 07:41:30;;;;;;;51.80;24.95;;;1.60;99.90;;;;;;492120;240;27489;-75
2021/03/19 07:43:31;;;;;;;44.65;25.62;;;1.60;99.90;;;;;;494182;240;27483;-74
2021/03/19 07:45:33;;;;;;;49.08;26.35;;;1.60;99.90;;;;;;492511;240;27497;-74
2021/03/19 07:47:34;;;;;;;47.58;25.58;;;1.60;99.90;;;;;;494759;240;27500;-74
2021/03/19 07:49:35;;;;;;;46.45;25.80;;;1.60;99.90;;;;;;494741;240;27405;-73
2021/03/19 07:51:36;;;;;;;45.03;23.12;;;1.60;99.90;;;;;;494769;240;27912;-74
2021/03/19 07:53:38;;;;;;;51.08;26.02;;;1.50;99.90;;;;;;494770;240;27875;-74
2021/03/19 07:55:39;;;;;;;43.87;24.95;;;1.50;99.90;;;;;;494734;240;27385;-73
2021/03/19 07:57:40;;;;;;;43.42;24.37;;;1.50;99.90;;;;;;494766;240;27474;-75
2021/03/19 07:59:41;;;;;;;40.65;22.13;;;1.50;99.90;;;;;;494762;240;27472;-73
2021/03/19 08:01:43;;;;;;;41.78;23.73;;;1.50;99.90;;;;;;493669;240;27471;-74
2021/03/19 08:03:44;;;;;;;42.00;24.27;;;1.50;99.90;;;;;;493662;241;27502;-74
2021/03/19 08:05:50;;;;;;;37.85;21.90;;;1.60;99.90;;;;;;494510;240;28012;-74
2021/03/19 08:07:49;;;;;;;41.90;22.33;;;1.70;99.90;;;;;;494719;240;27396;-74
2021/03/19 08:09:51;;;;;;;39.42;21.58;;;1.70;99.90;;;;;;485108;245;27505;-74
2021/03/19 08:11:52;;;;;;;36.42;22.60;;;1.60;99.90;;;;;;488306;240;27393;-76
2021/03/19 08:13:53;;;;;;;36.15;20.60;;;1.60;99.90;;;;;;491539;240;27939;-75
2021/03/19 08:15:54;;;;;;;40.25;21.95;;;1.50;99.90;;;;;;493557;240;27920;-75
2021/03/19 08:17:56;;;;;;;39.75;22.30;;;1.50;99.90;;;;;;493612;241;27652;-75
2021/03/19 08:19:57;;;;;;;37.85;20.92;;;1.60;99.90;;;;;;493633;241;27496;-76
2021/03/19 08:21:58;;;;;;;39.00;21.48;;;1.60;99.90;;;;;;493679;240;27490;-76
2021/03/19 08:23:59;;;;;;;36.45;20.90;;;1.50;99.90;;;;;;492912;240;27473;-73
2021/03/19 08:26:01;;;;;;;33.45;19.42;;;1.60;99.90;;;;;;493617;241;27497;-74
2021/03/19 08:28:02;;;;;;;40.60;20.20;;;1.50;99.90;;;;;;493677;241;27561;-74
2021/03/19 08:30:03;;;;;;;38.83;21.48;;;1.50;99.90;;;;;;493655;241;27946;-74
2021/03/19 08:32:05;;;;;;;32.85;19.65;;;1.50;99.90;;;;;;494024;240;27940;-78
2021/03/19 08:34:06;;;;;;;34.67;19.85;;;1.40;99.90;;;;;;493834;240;27501;-74
2021/03/19 08:36:07;;;;;;;31.17;19.05;;;1.40;99.90;;;;;;494767;240;27485;-74
2021/03/19 08:38:08;;;;;;;35.38;19.33;;;1.40;99.90;;;;;;494210;240;27397;-78
2021/03/19 08:40:09;;;;;;;31.52;19.27;;;1.60;99.90;;;;;;490478;242;27504;-74
2021/03/19 08:42:11;;;;;;;37.78;18.25;;;1.60;99.90;;;;;;490559;240;27576;-74
2021/03/19 08:44:12;;;;;;;31.42;17.65;;;1.60;99.90;;;;;;494678;240;27480;-73
2021/03/19 08:46:14;;;;;;;28.17;16.65;;;1.60;99.90;;;;;;494720;240;27942;-75
2021/03/19 08:48:15;;;;;;;28.05;16.75;;;1.70;99.90;;;;;;494819;240;27942;-73
2021/03/19 08:50:16;;;;;;;38.85;17.83;;;1.70;99.90;;;;;;494839;240;27464;-75
2021/03/19 08:52:17;;;;;;;28.15;17.45;;;1.80;99.90;;;;;;494805;240;27460;-73
2021/03/19 08:54:18;;;;;;;29.95;17.75;;;1.70;99.90;;;;;;494839;240;27390;-73
2021/03/19 08:56:20;;;;;;;28.80;15.57;;;1.80;99.90;;;;;;494803;240;27381;-77
2021/03/19 08:58:21;;;;;;;30.65;16.48;;;1.80;99.90;;;;;;494810;240;27390;-74
2021/03/19 09:00:22;;;;;;;26.80;15.48;;;1.80;99.90;;;;;;494824;240;27963;-74
2021/03/19 09:02:23;;;;;;;26.42;14.52;;;2.00;99.90;;;;;;494835;240;28061;-74
2021/03/19 09:04:25;;;;;;;28.42;15.98;;;2.10;99.90;;;;;;494342;240;27464;-74
2021/03/19 09:06:26;;;;;;;25.05;15.27;;;2.20;99.90;;;;;;494784;240;28030;-73
2021/03/19 09:08:27;;;;;;;25.05;15.13;;;1.90;99.90;;;;;;494795;240;28077;-73
2021/03/19 09:10:28;;;;;;;22.73;15.07;;;1.90;99.90;;;;;;494790;240;27381;-74
2021/03/19 09:12:30;;;;;;;24.10;14.68;;;1.90;99.90;;;;;;494346;240;27393;-75
2021/03/19 09:14:31;;;;;;;21.92;14.85;;;2.00;99.90;;;;;;492781;241;27392;-74
2021/03/19 09:16:32;;;;;;;24.58;15.43;;;2.00;99.90;;;;;;492841;241;27430;-74
2021/03/19 09:18:33;;;;;;;24.70;15.43;;;1.90;99.90;;;;;;492875;241;27391;-75
2021/03/19 09:20:35;;;;;;;29.77;15.82;;;2.00;99.90;;;;;;492934;241;27477;-75
2021/03/19 09:22:36;;;;;;;28.52;14.80;;;2.00;99.90;;;;;;492791;241;27482;-74
2021/03/19 09:24:37;;;;;;;24.52;14.87;;;1.90;99.90;;;;;;492811;241;27939;-74
2021/03/19 09:26:39;;;;;;;27.05;15.38;;;1.90;99.90;;;;;;492842;241;27853;-76
2021/03/19 09:28:40;;;;;;;27.85;16.90;;;1.80;99.90;;;;;;492833;239;27374;-73
2021/03/19 09:30:41;;;;;;;26.25;15.10;;;1.90;99.90;;;;;;492884;241;27395;-77
2021/03/19 09:32:42;;;;;;;24.52;15.85;;;1.90;99.90;;;;;;492892;241;27482;-75
2021/03/19 09:34:47;;;;;;;27.08;16.58;;;2.00;99.90;;;;;;492442;241;27418;-74
2021/03/19 09:36:45;;;;;;;23.75;16.12;;;1.80;99.90;;;;;;505984;234;28091;-78
2021/03/19 09:38:46;;;;;;;29.17;16.98;;;1.70;99.90;;;;;;491414;242;27934;-74
2021/03/19 09:40:48;;;;;;;27.55;15.43;;;1.80;99.90;;;;;;491770;242;27501;-74
2021/03/19 09:42:49;;;;;;;27.52;16.98;;;2.10;99.90;;;;;;490169;241;27932;-74
2021/03/19 09:44:50;;;;;;;27.75;16.08;;;2.20;99.90;;;;;;491725;233;27871;-74
2021/03/19 09:46:51;;;;;;;27.52;16.25;;;2.00;99.90;;;;;;488837;240;27461;-73
2021/03/19 09:48:52;;;;;;;24.48;15.38;;;2.00;99.90;;;;;;497170;237;27442;-75
2021/03/19 09:50:54;;;;;;;23.75;15.23;;;2.10;99.90;;;;;;499178;237;27354;-76
2021/03/19 09:52:55;;;;;;;31.95;15.93;;;2.20;99.90;;;;;;500667;237;27363;-74
2021/03/19 09:54:56;;;;;;;25.12;15.95;;;2.10;99.90;;;;;;500655;237;27375;-74
2021/03/19 09:57:02;;;;;;;26.00;16.15;;;1.90;99.90;;;;;;500624;237;27808;-74
2021/03/19 09:59:01;;;;;;;27.13;15.32;;;1.80;99.90;;;;;;500604;237;27837;-76
2021/03/19 10:01:03;;;;;;;30.52;16.52;;;2.00;99.90;;;;;;500645;237;27369;-75
2021/03/19 10:03:04;;;;;;;30.73;17.08;;;2.10;99.90;;;;;;499879;233;27428;-76
2021/03/19 10:05:05;;;;;;;28.62;16.30;;;2.20;99.90;;;;;;500784;236;27397;-74
2021/03/19 10:07:07;;;;;;;22.90;15.00;;;2.50;99.90;;;;;;500640;237;27342;-76
2021/03/19 10:09:08;;;;;;;23.58;14.75;;;2.80;99.90;;;;;;500518;237;27430;-74
2021/03/19 10:11:09;;;;;;;25.48;14.98;;;2.50;99.90;;;;;;500652;237;27439;-73
2021/03/19 10:13:10;;;;;;;26.30;17.30;;;2.50;99.90;;;;;;500645;237;27790;-75
2021/03/19 10:15:12;;;;;;;27.45;15.75;;;2.70;99.90;;;;;;500846;235;28909;-77
2021/03/19 10:17:13;;;;;;;27.40;16.05;;;2.50;99.90;;;;;;500858;235;27445;-75
2021/03/19 10:19:14;;;;;;;26.52;15.07;;;2.60;99.90;;;;;;500837;236;27475;-74
2021/03/19 10:23:36;;;;;;;27.62;16.87;;;2.40;99.90;;;;;;484298;237;27431;-74
2021/03/19 10:25:37;;;;;;;26.25;16.60;;;2.50;99.90;;;;;;492857;236;27849;-74